Aeroporto :
LOGIN :

Iscrizione | Disclaimer

   EN    FR    IT 

 










Sommario :    VFR   VFR Marginale   IFR   IFR Intensivo   IFR Molto Intensivo
Visibilità : 
Base nubi : 
>= 8 km
>= 3000ft
5 / 8 km
1000 / 3000 ft
1500m / 5 km
500 / 1000 ft
800 / 1500m
200 / 500 ft
< 800m
< 200 ft
Simboli :   Temporali  Nebbia  Neve Forte  Precipitazioni Forti  Vento > 20 kt
SIGMETs :   Varie  Temporali  Ghiacco  Turbolenza  Onda orograficha  Ceneri Vulcaniche






- Altitudine del aeroporto : 14 ft
- Codice IATA : BRE


EDDW - Bremen Neuenland

ULTIMO METAR :
  • 091020Z 14007KT 120V180 0800 R09/1100VP2000U FG OVC001 01/01 Q1004 BECMG 2000 BR BKN004

METARs OBSOLETI :
  • 090950Z 13007KT 0600 R09/0700D FG OVC001 01/01 Q1004 NOSIG
  • 090920Z 13007KT 0700 R09/0800V1300D FG OVC001 01/01 Q1004 BECMG 2000 BR BKN004
  • 090850Z 13007KT 0700 R09/1000V1600D FG OVC001 01/01 Q1004 BECMG 2000 BR BKN004
  • 090820Z 15007KT 120V180 0800 R09/1300VP2000N FG OVC001 01/01 Q1004 BECMG 2000 BR BKN004
  • 090750Z 13007KT 0600 R09/0900V1400D FG OVC001 01/01 Q1004 NOSIG

TAF AMD TAF EDDW
Valido dal 09 a 08 ore il 10 a 06 ore UTC


090819Z 0908/1006 15006KT 0700 FG BKN001
BECMG 0908/0911 6000 BKN007
TEMPO 0910/0916 4000 BR BKN013
BECMG 0916/0918 BKN013



MetMap, La meteo Aeronautica in un colpo d'occhio ! - Copyright ORBIFLY Dicembre 2007 - Disclaimer

ORBIFLY MET'MAP TEAM :

Programmazione e sviluppo : Alexandra Zaïnal
Concezione : Baudouin d'Aumeries
Aiuto per la programmazione : Marc-Olivier Méhu
Supporto tecnico e logistico : Manuel Goepfert
Aiuto per la traduzione : Arnaldo La Scala

Contatto : metmap@orbifly.com




FONTI E CREDITI :

   NOAA